createdAt,value
2022-08-26T00:02:42.015Z,37.50
2022-08-26T00:07:45.197Z,37.10
2022-08-26T00:12:49.736Z,37.00
2022-08-26T00:17:54.007Z,37.70
2022-08-26T00:22:57.212Z,37.40
2022-08-26T00:28:01.970Z,37.40
2022-08-26T00:33:06.271Z,37.70
2022-08-26T00:38:10.804Z,37.50
2022-08-26T00:43:16.556Z,37.80
2022-08-26T00:48:25.493Z,38.10
2022-08-26T00:53:32.343Z,38.50
2022-08-26T00:58:39.224Z,38.50
2022-08-26T01:03:45.556Z,38.90
2022-08-26T01:08:48.870Z,38.20
2022-08-26T01:13:56.017Z,38.00
2022-08-26T01:19:04.191Z,38.70
2022-08-26T01:24:10.273Z,39.10
2022-08-26T01:29:18.996Z,38.80
2022-08-26T01:34:26.304Z,38.60
2022-08-26T01:39:32.064Z,38.60
2022-08-26T01:44:40.937Z,38.80
2022-08-26T01:49:46.820Z,38.80
2022-08-26T01:54:52.341Z,38.70
2022-08-26T02:00:01.147Z,39.30
2022-08-26T02:05:07.765Z,39.30
2022-08-26T02:10:13.281Z,39.30
2022-08-26T02:15:17.250Z,39.30
2022-08-26T02:20:22.066Z,39.00
2022-08-26T02:25:32.847Z,39.40
2022-08-26T02:30:36.331Z,39.20
2022-08-26T02:35:41.393Z,39.20
2022-08-26T02:40:45.933Z,39.10
2022-08-26T02:45:51.456Z,39.10
2022-08-26T02:50:54.659Z,38.90
2022-08-26T02:55:59.174Z,39.20
2022-08-26T03:01:04.992Z,39.70
2022-08-26T03:06:08.683Z,39.30
2022-08-26T03:11:13.763Z,39.40
2022-08-26T03:16:17.073Z,40.30
2022-08-26T03:21:21.160Z,39.80
2022-08-26T03:26:26.287Z,40.00
2022-08-26T03:31:30.082Z,40.30
2022-08-26T03:36:33.581Z,40.00
2022-08-26T03:41:40.546Z,40.00
2022-08-26T03:46:44.294Z,40.50
2022-08-26T03:51:48.101Z,40.90
2022-08-26T03:56:52.723Z,40.10
2022-08-26T04:01:56.635Z,40.50
2022-08-26T04:07:00.911Z,40.10
2022-08-26T04:12:06.271Z,40.40
2022-08-26T04:17:09.449Z,40.70
2022-08-26T04:22:13.156Z,40.20
2022-08-26T04:27:17.739Z,40.10
2022-08-26T04:32:21.214Z,40.30
2022-08-26T04:37:24.517Z,40.00
2022-08-26T04:42:29.898Z,40.20
2022-08-26T04:47:33.116Z,40.90
2022-08-26T04:52:36.833Z,40.40
2022-08-26T04:57:41.424Z,40.60
2022-08-26T05:02:44.584Z,41.20
2022-08-26T05:07:47.758Z,40.90
2022-08-26T05:12:54.437Z,40.70
2022-08-26T05:17:59.089Z,41.40
2022-08-26T05:23:04.512Z,41.10
2022-08-26T05:28:09.342Z,41.30
2022-08-26T05:33:13.869Z,42.20
2022-08-26T05:38:19.056Z,41.70
2022-08-26T05:43:23.577Z,42.40
2022-08-26T05:48:26.727Z,42.70
2022-08-26T05:53:29.892Z,42.20
2022-08-26T05:58:36.241Z,42.30
2022-08-26T06:03:41.983Z,43.20
2022-08-26T06:08:45.820Z,43.00
2022-08-26T06:13:53.383Z,43.00
2022-08-26T06:18:57.032Z,43.60
2022-08-26T06:24:20.228Z,43.10
2022-08-26T06:29:27.344Z,43.70
2022-08-26T06:34:31.307Z,44.20
2022-08-26T06:39:34.662Z,43.90
2022-08-26T06:44:40.940Z,43.90
2022-08-26T06:49:44.400Z,44.60
2022-08-26T06:54:47.556Z,44.00
2022-08-26T06:59:52.200Z,44.10
2022-08-26T07:04:56.843Z,45.00
2022-08-26T07:10:00.162Z,44.60
2022-08-26T07:15:07.093Z,44.70
2022-08-26T07:20:11.885Z,45.60
2022-08-26T07:25:15.032Z,45.10
2022-08-26T07:30:19.777Z,45.10
2022-08-26T07:35:23.277Z,45.90
2022-08-26T07:40:26.776Z,45.30
2022-08-26T07:45:31.324Z,45.30
2022-08-26T07:50:49.549Z,45.90
2022-08-26T07:55:54.073Z,45.50
2022-08-26T08:00:58.655Z,45.30
2022-08-26T08:06:02.118Z,45.90
2022-08-26T08:11:05.316Z,45.20
2022-08-26T08:16:12.558Z,45.40
2022-08-26T08:21:22.045Z,45.80
2022-08-26T08:26:27.892Z,44.90
2022-08-26T08:36:58.558Z,45.30
2022-08-26T08:42:28.481Z,44.70
2022-08-26T08:47:37.165Z,44.80
2022-08-26T08:52:45.058Z,44.50
2022-08-26T08:58:02.908Z,44.30
2022-08-26T09:03:19.904Z,44.80
2022-08-26T09:08:29.474Z,44.70
2022-08-26T09:13:32.760Z,44.40
2022-08-26T09:18:59.138Z,44.20
2022-08-26T09:24:02.280Z,44.10
2022-08-26T09:29:08.909Z,43.90
2022-08-26T09:34:18.180Z,42.90
2022-08-26T09:39:31.740Z,42.50
2022-08-26T09:44:35.818Z,42.30
2022-08-26T09:49:41.486Z,41.80
2022-08-26T09:54:46.120Z,42.20
2022-08-26T09:59:50.999Z,41.60
2022-08-26T10:04:58.645Z,41.30
2022-08-26T10:10:16.967Z,39.70
2022-08-26T10:15:21.280Z,39.50
2022-08-26T10:20:29.624Z,39.00
2022-08-26T10:25:39.209Z,37.90
2022-08-26T10:30:52.106Z,37.50
2022-08-26T10:35:58.805Z,36.70
2022-08-26T10:41:10.417Z,36.90
2022-08-26T10:46:17.163Z,36.60
2022-08-26T10:51:26.762Z,36.40
2022-08-26T10:56:40.074Z,35.30
2022-08-26T11:01:51.040Z,35.00
2022-08-26T11:07:29.174Z,34.90
2022-08-26T11:12:57.435Z,34.90
2022-08-26T11:18:03.296Z,35.00
2022-08-26T11:23:37.879Z,35.10
2022-08-26T11:28:44.692Z,35.40
2022-08-26T11:33:51.009Z,35.40
2022-08-26T11:38:55.835Z,35.80
2022-08-26T11:44:02.356Z,36.30
2022-08-26T11:49:07.949Z,36.70
2022-08-26T11:54:13.261Z,36.80
2022-08-26T11:59:23.909Z,36.70
2022-08-26T12:04:31.900Z,36.90
2022-08-26T12:09:37.141Z,36.50
2022-08-26T12:14:42.808Z,36.60
2022-08-26T12:19:46.077Z,36.60
2022-08-26T12:24:52.381Z,36.50
2022-08-26T12:30:06.905Z,36.40
2022-08-26T12:35:15.055Z,35.80
2022-08-26T12:40:40.559Z,36.30
2022-08-26T12:45:57.719Z,36.60
2022-08-26T12:51:01.957Z,35.90
2022-08-26T12:56:21.011Z,35.80
2022-08-26T13:01:25.679Z,35.20
2022-08-26T13:06:31.473Z,34.50
2022-08-26T13:11:55.945Z,34.70
2022-08-26T13:17:00.562Z,34.80
2022-08-26T13:22:03.934Z,34.50
2022-08-26T13:27:09.470Z,35.00
2022-08-26T13:32:14.798Z,34.70
2022-08-26T13:37:19.730Z,34.00
2022-08-26T13:42:23.327Z,34.10
2022-08-26T13:47:28.000Z,33.80
2022-08-26T13:52:31.388Z,33.00
2022-08-26T13:57:34.567Z,33.60
2022-08-26T14:02:39.147Z,33.00
2022-08-26T14:07:42.384Z,31.90
2022-08-26T14:12:45.796Z,32.50
2022-08-26T14:17:51.185Z,32.00
2022-08-26T14:23:12.990Z,32.00
2022-08-26T14:28:18.288Z,32.10
2022-08-26T14:33:26.698Z,31.80
2022-08-26T14:38:29.857Z,30.30
2022-08-26T14:43:33.249Z,30.70
2022-08-26T14:48:37.781Z,30.00
2022-08-26T14:53:58.168Z,29.20
2022-08-26T14:59:01.464Z,29.60
2022-08-26T15:04:06.174Z,29.10
2022-08-26T15:09:09.856Z,28.30
2022-08-26T15:14:14.711Z,28.90
2022-08-26T15:19:25.625Z,30.50
2022-08-26T15:24:29.848Z,30.70
2022-08-26T15:29:33.189Z,30.60
2022-08-26T15:34:41.056Z,31.00
2022-08-26T15:39:44.330Z,30.80
2022-08-26T15:44:47.753Z,30.70
2022-08-26T15:49:52.273Z,30.90
2022-08-26T15:54:55.519Z,30.60
2022-08-26T15:59:58.675Z,30.80
2022-08-26T16:05:04.640Z,31.20
2022-08-26T16:10:08.835Z,30.70
2022-08-26T16:15:13.379Z,30.80
2022-08-26T16:20:18.197Z,31.00
2022-08-26T16:25:21.528Z,30.90
2022-08-26T16:30:25.074Z,31.20
2022-08-26T16:35:29.630Z,31.00
2022-08-26T16:40:33.198Z,30.60
2022-08-26T16:45:38.152Z,30.70
2022-08-26T16:50:46.672Z,30.80
2022-08-26T16:55:50.692Z,30.60
2022-08-26T17:00:53.847Z,30.90
2022-08-26T17:05:58.352Z,30.90
2022-08-26T17:11:01.950Z,30.90
2022-08-26T17:16:07.516Z,31.10
2022-08-26T17:21:14.243Z,31.30
2022-08-26T17:26:17.618Z,31.70
2022-08-26T17:31:21.633Z,31.70
2022-08-26T17:36:28.115Z,31.50
2022-08-26T17:41:31.819Z,31.50
2022-08-26T17:46:38.170Z,31.30
2022-08-26T17:51:42.930Z,32.00
2022-08-26T17:56:46.084Z,32.80
2022-08-26T18:01:49.253Z,32.10
2022-08-26T18:06:53.765Z,31.50
2022-08-26T18:11:56.923Z,31.10
2022-08-26T18:17:00.296Z,31.50
2022-08-26T18:22:05.757Z,31.60
2022-08-26T18:27:09.016Z,31.80
2022-08-26T18:32:12.127Z,32.00
2022-08-26T18:37:16.957Z,32.10
2022-08-26T18:42:20.229Z,31.80
2022-08-26T18:47:23.775Z,31.90
2022-08-26T18:52:28.315Z,32.20
2022-08-26T18:57:31.459Z,32.10
2022-08-26T19:02:35.407Z,32.00
2022-08-26T19:07:40.438Z,32.10
2022-08-26T19:12:44.676Z,32.30
2022-08-26T19:17:48.188Z,32.40
2022-08-26T19:22:52.713Z,32.50
2022-08-26T19:27:55.896Z,32.70
2022-08-26T19:32:59.037Z,32.70
2022-08-26T19:38:04.906Z,32.80
2022-08-26T19:43:08.793Z,32.80
2022-08-26T19:48:15.217Z,32.30
2022-08-26T19:53:19.843Z,32.50
2022-08-26T19:58:22.984Z,32.80
2022-08-26T20:03:27.301Z,33.10
2022-08-26T20:08:32.027Z,33.30
2022-08-26T20:13:35.203Z,33.70
2022-08-26T20:19:07.593Z,33.90
2022-08-26T20:24:14.437Z,33.40
2022-08-26T20:29:19.655Z,33.30
2022-08-26T20:34:23.279Z,33.40
2022-08-26T20:39:29.492Z,33.60
2022-08-26T20:44:32.622Z,33.70
2022-08-26T20:49:36.429Z,33.90
2022-08-26T20:54:41.394Z,33.90
2022-08-26T20:59:44.627Z,33.90
2022-08-26T21:04:47.873Z,33.80
2022-08-26T21:09:52.362Z,34.00
2022-08-26T21:14:55.613Z,34.40
2022-08-26T21:19:58.784Z,34.40
2022-08-26T21:25:03.486Z,34.60
2022-08-26T21:30:07.705Z,35.40
2022-08-26T21:35:11.836Z,35.60
2022-08-26T21:40:16.377Z,35.10
2022-08-26T21:45:19.725Z,35.20
2022-08-26T21:50:22.861Z,35.20
2022-08-26T21:55:27.461Z,35.50
2022-08-26T22:00:30.736Z,36.10
2022-08-26T22:05:33.904Z,35.80
2022-08-26T22:10:40.019Z,35.90
2022-08-26T22:15:43.200Z,37.10
2022-08-26T22:20:46.612Z,36.50
2022-08-26T22:25:52.027Z,36.50
2022-08-26T22:30:56.486Z,37.50
2022-08-26T22:35:59.647Z,36.90
2022-08-26T22:41:08.229Z,37.00
2022-08-26T22:46:16.385Z,37.70
2022-08-26T22:51:19.631Z,37.50
2022-08-26T22:56:24.373Z,37.50
2022-08-26T23:01:27.648Z,38.10
2022-08-26T23:06:30.962Z,37.70
2022-08-26T23:11:36.408Z,37.80
2022-08-26T23:16:41.556Z,38.70
2022-08-26T23:21:45.093Z,38.60
2022-08-26T23:26:49.863Z,38.40
2022-08-26T23:31:53.040Z,39.10
2022-08-26T23:36:56.910Z,39.10
2022-08-26T23:42:02.917Z,39.10
2022-08-26T23:47:06.300Z,39.10
2022-08-26T23:52:27.431Z,39.10
2022-08-26T23:57:32.092Z,39.10
